Time;durP1;ratioP1;P1;durP2;ratioP2;P2;SDS_P1;SDS_P2;PMS_P1;PMS_P2;Temp;Humidity;BMP_temperature;BMP_pressure;BME280_temperature;BME280_humidity;BME280_pressure;Samples;Min_cycle;Max_cycle;Signal;HPM_P1;HPM_P2
2023/03/12 00:00:03;;;;;;;8.98;4.32;;;2.30;99.90;;;;;;5124255;27;20039;-47
2023/03/12 00:02:33;;;;;;;8.05;4.25;;;2.30;99.90;;;;;;5124061;27;20061;-47
2023/03/12 00:05:00;;;;;;;6.68;2.80;;;2.30;99.90;;;;;;5134431;27;20054;-50
2023/03/12 00:07:27;;;;;;;8.05;4.03;;;2.40;99.90;;;;;;5126242;27;20043;-49
2023/03/12 00:09:54;;;;;;;6.68;3.67;;;2.40;99.90;;;;;;5130330;27;20047;-47
2023/03/12 00:12:21;;;;;;;8.13;3.75;;;2.40;99.90;;;;;;5133912;27;20095;-48
2023/03/12 00:14:47;;;;;;;9.00;3.80;;;2.30;99.90;;;;;;5129397;27;20027;-49
2023/03/12 00:17:14;;;;;;;7.55;3.65;;;2.30;99.90;;;;;;5122053;27;20044;-50
2023/03/12 00:19:41;;;;;;;10.23;4.28;;;2.30;99.90;;;;;;5113081;28;20071;-48
2023/03/12 00:22:07;;;;;;;8.50;3.70;;;2.30;99.90;;;;;;5113344;28;20035;-47
2023/03/12 00:24:34;;;;;;;3.70;2.22;;;2.20;99.90;;;;;;5129260;27;20488;-50
2023/03/12 00:27:01;;;;;;;7.10;3.53;;;2.30;99.90;;;;;;5130792;27;20047;-49
2023/03/12 00:29:28;;;;;;;7.20;3.83;;;2.20;99.90;;;;;;5105365;28;20032;-49
2023/03/12 00:31:55;;;;;;;9.25;4.05;;;2.30;99.90;;;;;;5105528;27;20556;-50
2023/03/12 00:34:21;;;;;;;6.35;3.78;;;2.30;99.90;;;;;;5122786;27;20124;-49
2023/03/12 00:36:48;;;;;;;6.13;2.78;;;2.20;99.90;;;;;;5127052;27;20043;-49
2023/03/12 00:39:15;;;;;;;8.93;3.85;;;2.20;99.90;;;;;;5124055;27;20073;-48
2023/03/12 00:41:42;;;;;;;7.60;2.75;;;2.20;99.90;;;;;;5102607;28;20066;-51
2023/03/12 00:44:08;;;;;;;6.40;4.15;;;2.20;99.90;;;;;;5123675;27;20039;-49
2023/03/12 00:46:35;;;;;;;10.65;4.22;;;2.10;99.90;;;;;;5121625;27;20399;-51
2023/03/12 00:49:02;;;;;;;8.80;3.88;;;2.20;99.90;;;;;;5111213;28;20039;-49
2023/03/12 00:51:28;;;;;;;5.88;3.35;;;2.20;99.90;;;;;;5111555;28;20043;-49
2023/03/12 00:53:55;;;;;;;7.63;3.90;;;2.20;99.90;;;;;;5111745;28;20047;-49
2023/03/12 00:56:23;;;;;;;6.32;3.67;;;2.20;99.90;;;;;;5108859;28;20499;-49
2023/03/12 00:58:50;;;;;;;5.43;2.85;;;2.20;99.90;;;;;;5107189;28;20107;-49
2023/03/12 01:01:17;;;;;;;8.68;3.60;;;2.10;99.90;;;;;;5104900;28;20133;-49
2023/03/12 01:03:44;;;;;;;7.57;3.95;;;2.10;99.90;;;;;;5124791;27;20444;-50
2023/03/12 01:06:11;;;;;;;6.30;3.78;;;2.20;99.90;;;;;;5096349;28;20043;-50
2023/03/12 01:08:38;;;;;;;8.38;3.67;;;2.20;99.90;;;;;;5112206;28;20044;-47
2023/03/12 01:11:05;;;;;;;7.00;3.30;;;2.20;99.90;;;;;;5101815;28;20109;-50
2023/03/12 01:13:32;;;;;;;8.65;4.35;;;2.20;99.90;;;;;;5122591;27;20399;-49
2023/03/12 01:15:59;;;;;;;6.25;3.58;;;2.20;99.90;;;;;;5094348;28;20055;-50
2023/03/12 01:18:25;;;;;;;8.93;3.97;;;2.10;99.90;;;;;;5096757;27;20046;-49
2023/03/12 01:20:52;;;;;;;6.90;3.50;;;2.10;99.90;;;;;;5132772;27;20039;-51
2023/03/12 01:23:19;;;;;;;8.98;4.25;;;2.10;99.90;;;;;;5093982;28;20109;-48
2023/03/12 01:25:46;;;;;;;5.32;2.28;;;2.20;99.90;;;;;;5094062;28;20048;-53
2023/03/12 01:28:13;;;;;;;6.28;3.70;;;2.10;99.90;;;;;;5120360;27;20118;-47
2023/03/12 01:30:40;;;;;;;6.82;3.47;;;2.10;99.90;;;;;;5102431;28;20117;-50
2023/03/12 01:33:07;;;;;;;4.95;2.75;;;2.10;99.90;;;;;;5112334;28;20097;-46
2023/03/12 01:35:38;;;;;;;6.18;3.47;;;2.10;99.90;;;;;;5112649;27;20035;-49
2023/03/12 01:38:06;;;;;;;7.70;3.75;;;2.10;99.90;;;;;;5109580;28;20508;-49
2023/03/12 01:40:34;;;;;;;7.53;3.63;;;2.10;99.90;;;;;;5093729;28;20044;-48
2023/03/12 01:43:28;;;;;;;6.28;3.50;;;2.20;99.90;;;;;;5093491;28;20056;-49
2023/03/12 01:46:15;;;;;;;7.35;4.25;;;2.20;99.90;;;;;;5099303;28;20557;-50
2023/03/12 01:48:45;;;;;;;10.05;3.70;;;2.20;99.90;;;;;;5093117;28;20052;-50
2023/03/12 01:51:14;;;;;;;9.27;3.90;;;2.30;99.90;;;;;;5093737;28;20256;-49
2023/03/12 01:53:45;;;;;;;7.68;3.70;;;2.30;99.90;;;;;;5100393;27;20047;-51
2023/03/12 01:56:14;;;;;;;5.88;3.35;;;2.20;99.90;;;;;;5101884;28;20771;-49
2023/03/12 01:58:46;;;;;;;9.23;4.07;;;2.20;99.90;;;;;;5109892;28;20051;-51
2023/03/12 02:01:16;;;;;;;6.20;3.70;;;2.10;99.90;;;;;;5112077;27;20043;-49
2023/03/12 02:03:49;;;;;;;8.95;3.30;;;2.10;99.90;;;;;;5095096;28;20131;-50
2023/03/12 02:06:20;;;;;;;8.35;3.50;;;2.10;99.90;;;;;;5103658;28;20047;-49
2023/03/12 02:08:47;;;;;;;5.43;3.42;;;2.00;99.90;;;;;;5111153;28;20042;-51
2023/03/12 02:11:14;;;;;;;6.25;3.13;;;2.00;99.90;;;;;;5114037;28;20448;-49
2023/03/12 02:13:41;;;;;;;8.32;3.50;;;2.00;99.90;;;;;;5101856;28;20085;-48
2023/03/12 02:16:08;;;;;;;6.30;3.80;;;2.00;99.90;;;;;;5110415;28;20385;-50
2023/03/12 02:18:35;;;;;;;7.20;3.30;;;2.00;99.90;;;;;;5109912;28;20078;-49
2023/03/12 02:21:17;;;;;;;6.82;3.17;;;1.90;99.90;;;;;;5117125;28;20039;-49
2023/03/12 02:24:05;;;;;;;5.70;3.80;;;1.90;99.90;;;;;;5117543;28;20119;-48
2023/03/12 02:26:33;;;;;;;4.90;3.08;;;2.00;99.90;;;;;;5094681;28;20043;-50
2023/03/12 02:29:01;;;;;;;7.68;2.97;;;1.90;99.90;;;;;;5097742;27;20925;-49
2023/03/12 02:31:35;;;;;;;5.45;3.25;;;2.00;99.90;;;;;;5117645;27;20032;-48
2023/03/12 02:34:03;;;;;;;7.50;3.40;;;1.90;99.90;;;;;;5114469;28;20040;-49
2023/03/12 02:36:29;;;;;;;7.85;3.47;;;1.90;99.90;;;;;;5114098;28;20047;-50
2023/03/12 02:38:56;;;;;;;5.20;2.67;;;1.90;99.90;;;;;;5134061;27;20201;-49
2023/03/12 02:41:30;;;;;;;9.50;4.22;;;1.90;99.90;;;;;;5104635;28;20511;-51
2023/03/12 02:44:06;;;;;;;5.25;3.30;;;2.00;99.90;;;;;;5115611;28;20036;-51
2023/03/12 02:46:39;;;;;;;7.07;3.70;;;2.00;99.90;;;;;;5110275;28;20043;-51
2023/03/12 02:49:06;;;;;;;6.07;3.58;;;2.10;99.90;;;;;;5098849;27;20385;-50
2023/03/12 02:51:33;;;;;;;6.22;3.13;;;2.10;99.90;;;;;;5088179;28;20778;-49
2023/03/12 02:53:59;;;;;;;5.55;3.55;;;2.10;99.90;;;;;;5117383;27;20138;-49
2023/03/12 02:56:28;;;;;;;5.55;3.33;;;2.00;99.90;;;;;;5117548;27;20047;-50
2023/03/12 02:58:54;;;;;;;7.50;3.28;;;2.10;99.90;;;;;;5126668;27;20042;-49
2023/03/12 03:01:23;;;;;;;6.32;2.92;;;2.00;99.90;;;;;;5104496;28;20051;-49
2023/03/12 03:03:49;;;;;;;7.53;3.33;;;2.00;99.90;;;;;;5111785;28;20071;-50
2023/03/12 03:06:17;;;;;;;6.40;3.10;;;1.90;99.90;;;;;;5114887;27;20039;-48
2023/03/12 03:08:44;;;;;;;;;;;1.90;99.90;;;;;;5102260;28;20035;-49
2023/03/12 03:11:11;;;;;;;4.40;2.70;;;2.00;99.90;;;;;;5113825;28;20019;-52
2023/03/12 03:13:39;;;;;;;7.07;2.92;;;1.90;99.90;;;;;;5113550;28;20040;-49
2023/03/12 03:16:06;;;;;;;5.90;2.90;;;2.00;99.90;;;;;;5116186;27;20049;-51
2023/03/12 03:18:33;;;;;;;4.80;3.08;;;2.00;99.90;;;;;;5110401;28;20043;-49
2023/03/12 03:21:05;;;;;;;4.97;3.00;;;2.00;99.90;;;;;;5114631;28;20036;-49
2023/03/12 03:23:33;;;;;;;4.70;3.05;;;2.00;99.90;;;;;;5096533;28;20051;-49
2023/03/12 03:26:01;;;;;;;6.82;3.75;;;2.00;99.90;;;;;;5104428;27;20058;-49
2023/03/12 03:28:29;;;;;;;9.68;3.70;;;2.00;99.90;;;;;;5111233;28;20048;-50
2023/03/12 03:31:00;;;;;;;5.72;3.42;;;2.10;99.90;;;;;;5096707;28;20051;-49
2023/03/12 03:33:33;;;;;;;7.90;3.38;;;2.10;99.90;;;;;;5096622;28;20138;-49
2023/03/12 03:36:01;;;;;;;7.15;3.97;;;2.00;99.90;;;;;;5105874;27;20130;-51
2023/03/12 03:38:32;;;;;;;6.32;3.80;;;2.00;99.90;;;;;;5100949;28;20778;-52
2023/03/12 03:41:00;;;;;;;7.35;3.67;;;2.00;99.90;;;;;;5096368;28;20051;-48
2023/03/12 03:43:28;;;;;;;8.02;3.72;;;2.00;99.90;;;;;;5102402;27;20047;-50
2023/03/12 03:46:00;;;;;;;7.18;3.78;;;2.00;99.90;;;;;;5104190;28;20050;-49
2023/03/12 03:48:28;;;;;;;5.65;3.35;;;2.00;99.90;;;;;;5095762;28;20075;-54
2023/03/12 03:51:00;;;;;;;6.88;3.03;;;2.00;99.90;;;;;;5096425;28;20046;-51
2023/03/12 03:53:29;;;;;;;8.40;3.47;;;1.90;99.90;;;;;;5110855;28;20062;-49
2023/03/12 03:55:56;;;;;;;8.00;2.92;;;1.90;99.90;;;;;;5109919;28;20043;-49
2023/03/12 03:58:24;;;;;;;5.43;3.20;;;1.90;99.90;;;;;;5124216;22;20051;-50
2023/03/12 04:01:42;;;;;;;6.07;4.05;;;1.90;99.90;;;;;;5060552;28;20063;-53
2023/03/12 04:04:09;;;;;;;5.75;3.58;;;1.80;99.90;;;;;;5051210;28;20055;-51
2023/03/12 04:06:35;;;;;;;7.68;3.65;;;1.90;99.90;;;;;;5054495;28;20044;-47
2023/03/12 04:09:03;;;;;;;6.15;3.38;;;1.90;99.90;;;;;;5034911;28;20498;-50
2023/03/12 04:11:31;;;;;;;4.10;2.90;;;1.80;99.90;;;;;;5052106;28;20481;-49
2023/03/12 04:13:59;;;;;;;8.23;3.55;;;1.80;99.90;;;;;;5035473;28;20079;-51
2023/03/12 04:16:29;;;;;;;10.90;3.97;;;1.70;99.90;;;;;;5041757;28;20119;-50
2023/03/12 04:18:57;;;;;;;6.35;3.08;;;1.70;99.90;;;;;;5048667;28;20068;-52
2023/03/12 04:21:25;;;;;;;8.65;3.88;;;1.80;99.90;;;;;;5035212;28;20100;-50
2023/03/12 04:23:52;;;;;;;5.30;2.50;;;1.80;99.90;;;;;;5057191;28;20037;-50
2023/03/12 04:26:22;;;;;;;8.63;3.72;;;1.80;99.90;;;;;;5047687;28;20132;-52
2023/03/12 04:28:49;;;;;;;9.30;3.60;;;1.80;99.90;;;;;;5072716;28;20039;-51
2023/03/12 04:31:15;;;;;;;6.43;3.70;;;1.80;99.90;;;;;;5054868;28;20036;-49
2023/03/12 04:33:49;;;;;;;6.05;3.80;;;1.90;99.90;;;;;;5064697;28;20409;-50
2023/03/12 04:36:21;;;;;;;8.15;4.20;;;1.90;99.90;;;;;;5055034;28;20115;-51
2023/03/12 04:38:49;;;;;;;5.93;3.80;;;1.90;99.90;;;;;;5052745;28;20072;-49
2023/03/12 04:41:20;;;;;;;7.60;4.40;;;1.90;99.90;;;;;;5071596;28;20045;-50
2023/03/12 04:43:52;;;;;;;6.97;4.32;;;1.90;99.90;;;;;;5054531;28;20064;-50
2023/03/12 04:46:20;;;;;;;8.52;4.60;;;2.00;99.90;;;;;;5052738;28;20124;-50
2023/03/12 04:48:47;;;;;;;;;;;2.00;99.90;;;;;;5034493;28;20044;-50
2023/03/12 04:51:14;;;;;;;8.15;4.03;;;2.00;99.90;;;;;;5038082;28;20344;-49
2023/03/12 04:53:41;;;;;;;10.30;4.57;;;2.00;99.90;;;;;;5047672;28;20037;-49
2023/03/12 04:56:11;;;;;;;6.35;3.65;;;2.00;99.90;;;;;;5053552;28;20052;-52
2023/03/12 04:58:38;;;;;;;6.35;4.20;;;1.90;99.90;;;;;;5053525;28;20099;-51
2023/03/12 05:01:06;;;;;;;7.32;3.92;;;1.90;99.90;;;;;;5053941;28;20055;-50
2023/03/12 05:03:34;;;;;;;5.97;3.85;;;2.00;99.90;;;;;;5062491;28;20044;-50
2023/03/12 05:06:01;;;;;;;8.65;4.20;;;2.00;99.90;;;;;;5054315;28;20448;-50
2023/03/12 05:08:28;;;;;;;7.70;4.15;;;2.00;99.90;;;;;;5070703;28;20072;-50
2023/03/12 05:10:55;;;;;;;13.00;3.42;;;2.00;99.90;;;;;;5050249;28;20041;-49
2023/03/12 05:13:22;;;;;;;15.15;4.43;;;2.00;99.90;;;;;;5034228;28;20486;-49
2023/03/12 05:15:53;;;;;;;8.75;4.18;;;2.00;99.90;;;;;;5034006;28;20505;-53
2023/03/12 05:18:20;;;;;;;9.38;4.85;;;1.90;99.90;;;;;;5050454;28;20143;-49
2023/03/12 05:20:59;;;;;;;8.48;4.30;;;1.90;99.90;;;;;;5043177;28;20041;-49
2023/03/12 05:23:26;;;;;;;10.20;5.00;;;1.80;99.90;;;;;;5050802;28;20048;-50
2023/03/12 05:25:54;;;;;;;10.05;5.07;;;1.80;99.90;;;;;;5033809;28;20056;-50
2023/03/12 05:28:26;;;;;;;;;;;1.70;99.90;;;;;;5062063;28;20481;-49
2023/03/12 05:30:56;;;;;;;10.15;4.75;;;1.70;99.90;;;;;;5050976;28;20270;-50
2023/03/12 05:33:25;;;;;;;9.52;5.35;;;1.60;99.90;;;;;;5054056;28;20047;-50
2023/03/12 05:35:52;;;;;;;8.65;4.78;;;1.50;99.90;;;;;;5070437;28;20055;-50
2023/03/12 05:38:19;;;;;;;11.45;5.07;;;1.50;99.90;;;;;;5052636;28;20602;-50
2023/03/12 05:40:54;;;;;;;11.85;5.35;;;1.50;99.90;;;;;;5054416;28;20060;-49
2023/03/12 05:43:22;;;;;;;10.98;5.70;;;1.50;99.90;;;;;;5051565;28;20504;-50
2023/03/12 05:45:50;;;;;;;12.77;6.15;;;1.50;99.90;;;;;;5040387;28;20086;-50
2023/03/12 05:48:18;;;;;;;10.82;6.38;;;1.40;99.90;;;;;;5041497;28;20160;-52
2023/03/12 05:50:45;;;;;;;13.00;6.03;;;1.40;99.90;;;;;;5033386;28;20068;-49
2023/03/12 05:53:12;;;;;;;8.38;3.92;;;1.40;99.90;;;;;;5050917;28;20413;-50
2023/03/12 05:55:40;;;;;;;12.30;5.70;;;1.30;99.90;;;;;;5033486;28;20069;-49
2023/03/12 05:58:08;;;;;;;9.55;5.20;;;1.40;99.90;;;;;;5033479;28;20107;-50
2023/03/12 06:00:37;;;;;;;16.20;5.78;;;1.30;99.90;;;;;;5033336;28;20076;-52
2023/03/12 06:03:05;;;;;;;12.05;6.35;;;1.30;99.90;;;;;;5052748;28;20036;-50
2023/03/12 06:05:33;;;;;;;13.68;6.78;;;1.30;99.90;;;;;;5047637;28;20386;-49
2023/03/12 06:08:01;;;;;;;20.38;6.35;;;1.30;99.90;;;;;;5052952;28;20048;-49
2023/03/12 06:10:28;;;;;;;14.27;6.28;;;1.20;99.90;;;;;;5052804;28;20170;-50
2023/03/12 06:12:56;;;;;;;13.75;6.53;;;1.20;99.90;;;;;;5050642;28;20037;-49
2023/03/12 06:15:23;;;;;;;15.43;6.20;;;1.20;99.90;;;;;;5049777;28;20049;-50
2023/03/12 06:17:49;;;;;;;9.98;6.22;;;1.30;99.90;;;;;;5051494;28;20041;-51
2023/03/12 06:20:16;;;;;;;12.45;4.90;;;1.30;99.90;;;;;;5035688;28;20045;-49
2023/03/12 06:22:43;;;;;;;10.13;6.05;;;1.40;99.90;;;;;;5046137;28;20448;-49
2023/03/12 06:25:10;;;;;;;12.88;5.95;;;1.40;99.90;;;;;;5052127;28;20090;-52
2023/03/12 06:27:37;;;;;;;;;;;1.40;99.90;;;;;;5053506;28;20045;-50
2023/03/12 06:30:04;;;;;;;15.90;6.57;;;1.40;99.90;;;;;;5070250;28;20328;-50
2023/03/12 06:32:31;;;;;;;;;;;1.40;99.90;;;;;;5063042;28;20040;-52
2023/03/12 06:34:59;;;;;;;11.95;6.32;;;0.70;99.90;;;;;;5071092;28;20018;-50
2023/03/12 06:37:27;;;;;;;14.52;7.03;;;1.40;99.90;;;;;;5071010;28;20120;-49
2023/03/12 06:39:53;;;;;;;;;;;2.30;99.90;;;;;;5064902;28;20040;-51
2023/03/12 06:42:21;;;;;;;11.15;6.55;;;1.60;99.90;;;;;;5050849;28;19920;-49
2023/03/12 06:44:49;;;;;;;13.30;7.65;;;1.60;99.90;;;;;;5051031;28;20045;-50
2023/03/12 06:47:16;;;;;;;20.40;10.30;;;1.70;99.90;;;;;;5050593;28;20041;-49
2023/03/12 06:49:43;;;;;;;14.77;8.63;;;1.80;99.90;;;;;;5058640;28;20560;-50
2023/03/12 06:52:10;;;;;;;17.17;8.63;;;1.80;99.90;;;;;;5062502;28;20101;-51
2023/03/12 06:54:37;;;;;;;17.20;9.82;;;1.80;99.90;;;;;;5071013;28;20048;-51
2023/03/12 06:57:04;;;;;;;15.75;5.88;;;1.90;99.90;;;;;;5070700;28;20090;-49
2023/03/12 06:59:31;;;;;;;;;;;1.90;99.90;;;;;;5064165;28;20041;-49
2023/03/12 07:01:57;;;;;;;14.27;8.07;;;2.00;99.90;;;;;;5068193;28;19924;-50
2023/03/12 07:04:24;;;;;;;18.83;8.73;;;2.00;99.90;;;;;;5070902;28;20063;-49
2023/03/12 07:06:51;;;;;;;14.43;8.02;;;2.00;99.90;;;;;;5070299;28;20126;-50
2023/03/12 07:09:18;;;;;;;14.43;6.75;;;2.00;99.90;;;;;;5058536;28;20045;-51
2023/03/12 07:11:45;;;;;;;10.02;6.22;;;2.00;99.90;;;;;;5050839;28;20041;-51
2023/03/12 07:14:12;;;;;;;12.80;6.95;;;2.00;99.90;;;;;;5074333;28;20041;-53
2023/03/12 07:16:39;;;;;;;13.50;7.10;;;2.10;99.90;;;;;;5065501;28;20033;-49
2023/03/12 07:19:06;;;;;;;15.93;8.27;;;2.00;99.90;;;;;;5053849;28;20069;-50
2023/03/12 07:21:33;;;;;;;12.52;5.88;;;2.10;99.90;;;;;;5054142;28;20041;-50
2023/03/12 07:24:05;;;;;;;15.75;8.05;;;2.10;99.90;;;;;;5054748;28;20049;-52
2023/03/12 07:26:34;;;;;;;18.70;7.75;;;2.20;99.90;;;;;;5061510;28;20052;-51
2023/03/12 07:29:01;;;;;;;17.30;7.30;;;2.20;99.90;;;;;;5062656;28;20084;-53
2023/03/12 07:31:28;;;;;;;18.90;7.45;;;2.30;99.90;;;;;;5062893;28;20088;-50
2023/03/12 07:33:55;;;;;;;17.55;7.53;;;2.30;99.90;;;;;;5062712;28;20040;-50
2023/03/12 07:36:22;;;;;;;16.90;7.57;;;2.30;99.90;;;;;;5065003;28;20044;-50
2023/03/12 07:38:49;;;;;;;12.48;7.18;;;2.30;99.90;;;;;;5062272;28;20041;-49
2023/03/12 07:41:16;;;;;;;15.10;6.85;;;2.30;99.90;;;;;;5065086;28;20079;-49
2023/03/12 07:43:43;;;;;;;11.10;5.22;;;2.40;99.90;;;;;;5065303;28;20048;-49
2023/03/12 07:46:10;;;;;;;14.55;7.60;;;2.40;99.90;;;;;;5052942;28;20069;-51
2023/03/12 07:48:37;;;;;;;13.27;7.13;;;2.40;99.90;;;;;;5053320;28;20067;-51
2023/03/12 07:51:04;;;;;;;14.60;8.15;;;2.30;99.90;;;;;;5053617;28;20041;-51
2023/03/12 07:53:31;;;;;;;15.88;7.85;;;2.40;99.90;;;;;;5066207;28;20037;-50
2023/03/12 07:55:58;;;;;;;16.10;8.45;;;2.40;99.90;;;;;;5073276;28;20090;-50
2023/03/12 07:58:25;;;;;;;21.90;7.78;;;2.50;99.90;;;;;;5072878;28;20036;-50
2023/03/12 08:00:54;;;;;;;19.35;7.88;;;2.50;99.90;;;;;;5072754;28;20045;-52
2023/03/12 08:03:21;;;;;;;14.80;7.63;;;2.50;99.90;;;;;;5061634;28;20591;-49
2023/03/12 08:06:00;;;;;;;20.02;8.93;;;2.50;99.90;;;;;;5073095;28;20055;-50
2023/03/12 08:08:27;;;;;;;15.77;9.32;;;2.50;99.90;;;;;;5072602;28;20633;-53
2023/03/12 08:10:54;;;;;;;17.98;10.18;;;2.50;99.90;;;;;;5063398;28;20047;-54
2023/03/12 08:13:22;;;;;;;16.45;9.40;;;2.60;99.90;;;;;;5053043;28;20075;-50
2023/03/12 08:15:51;;;;;;;16.27;9.35;;;2.60;99.90;;;;;;5035328;28;20056;-54
2023/03/12 08:18:19;;;;;;;18.83;9.32;;;2.70;99.90;;;;;;5052638;28;20125;-50
2023/03/12 08:20:50;;;;;;;30.10;10.93;;;2.90;99.90;;;;;;5064323;28;20041;-53
2023/03/12 08:23:17;;;;;;;22.50;11.52;;;3.00;99.90;;;;;;5052523;28;20049;-49
2023/03/12 08:25:48;;;;;;;19.85;10.52;;;3.10;99.90;;;;;;5052590;28;20053;-49
2023/03/12 08:28:16;;;;;;;22.55;10.88;;;3.00;99.90;;;;;;5053557;28;20048;-50
2023/03/12 08:30:48;;;;;;;22.80;9.85;;;3.20;99.90;;;;;;5065355;28;20044;-50
2023/03/12 08:33:15;;;;;;;23.70;9.15;;;3.30;99.90;;;;;;5072278;28;20106;-51
2023/03/12 08:35:42;;;;;;;17.63;9.38;;;3.30;99.90;;;;;;5072831;28;20070;-51
2023/03/12 08:38:09;;;;;;;18.52;9.23;;;3.40;99.90;;;;;;5063013;28;20040;-53
2023/03/12 08:40:36;;;;;;;21.08;9.55;;;3.70;99.90;;;;;;5064067;28;20028;-49
2023/03/12 08:43:03;;;;;;;41.60;16.58;;;3.70;99.90;;;;;;5072444;28;20044;-50
2023/03/12 08:45:30;;;;;;;23.30;13.15;;;3.70;99.90;;;;;;5069758;28;20067;-49
2023/03/12 08:47:57;;;;;;;22.17;12.88;;;3.80;99.90;;;;;;5052084;28;20116;-54
2023/03/12 08:50:27;;;;;;;20.00;10.93;;;3.70;99.90;;;;;;5050878;28;20526;-52
2023/03/12 08:52:55;;;;;;;26.35;12.85;;;3.50;99.90;;;;;;5052136;28;20037;-49
2023/03/12 08:55:21;;;;;;;21.98;12.05;;;3.40;99.90;;;;;;5064612;28;20086;-50
2023/03/12 08:57:48;;;;;;;15.55;8.00;;;3.60;99.90;;;;;;5068255;28;20071;-50
2023/03/12 09:00:16;;;;;;;18.70;8.23;;;3.70;99.90;;;;;;5071379;28;20501;-50
2023/03/12 09:02:44;;;;;;;20.67;9.38;;;3.90;99.90;;;;;;5070815;28;20032;-50
2023/03/12 09:05:12;;;;;;;17.63;9.43;;;4.00;99.90;;;;;;5063828;28;20377;-50
2023/03/12 09:07:40;;;;;;;23.45;10.27;;;4.10;99.90;;;;;;5072148;28;20150;-50
2023/03/12 09:10:07;;;;;;;17.70;9.55;;;4.20;99.90;;;;;;5065710;28;20051;-50
2023/03/12 09:12:33;;;;;;;19.98;9.77;;;4.40;99.90;;;;;;5033605;28;20095;-53
2023/03/12 09:15:00;;;;;;;19.83;10.93;;;4.30;99.90;;;;;;5051792;28;20045;-52
2023/03/12 09:17:29;;;;;;;18.00;9.63;;;4.40;99.90;;;;;;5052056;28;20047;-51
2023/03/12 09:19:56;;;;;;;19.42;10.57;;;4.70;99.90;;;;;;5061955;28;20099;-50
2023/03/12 09:22:23;;;;;;;22.45;10.50;;;4.70;99.90;;;;;;5071711;28;20079;-51
2023/03/12 09:24:50;;;;;;;18.65;11.25;;;4.80;99.90;;;;;;5071801;28;20110;-50
2023/03/12 09:27:16;;;;;;;21.70;10.93;;;4.70;99.90;;;;;;5070797;28;20083;-50
2023/03/12 09:29:43;;;;;;;19.40;10.73;;;4.80;99.90;;;;;;5062771;28;20538;-51
2023/03/12 09:32:26;;;;;;;21.05;11.27;;;4.70;99.90;;;;;;5071121;28;20403;-52
2023/03/12 09:34:53;;;;;;;17.83;11.05;;;4.60;99.90;;;;;;5070205;28;20045;-54
2023/03/12 09:37:20;;;;;;;24.23;12.40;;;4.60;99.90;;;;;;5051436;28;20490;-52
2023/03/12 09:39:51;;;;;;;19.13;10.15;;;4.50;99.90;;;;;;5050862;28;20056;-51
2023/03/12 09:42:43;;;;;;;18.17;10.18;;;4.40;99.90;;;;;;5051238;28;20052;-50
2023/03/12 09:45:23;;;;;;;15.90;9.60;;;4.30;99.90;;;;;;5051779;28;20068;-51
2023/03/12 09:47:53;;;;;;;20.27;9.57;;;4.30;99.90;;;;;;5051277;28;20456;-52
2023/03/12 09:50:33;;;;;;;14.18;8.63;;;4.30;99.90;;;;;;5050942;28;20045;-49
2023/03/12 09:53:04;;;;;;;15.77;9.20;;;4.40;99.90;;;;;;5058965;28;20040;-51
2023/03/12 09:55:39;;;;;;;16.65;10.07;;;4.30;99.90;;;;;;5062932;28;20067;-50
2023/03/12 09:58:20;;;;;;;14.50;9.05;;;4.40;99.90;;;;;;5070772;28;20044;-52
2023/03/12 10:01:36;;;;;;;15.82;9.48;;;4.50;99.90;;;;;;5100467;22;20557;-51
2023/03/12 10:04:40;;;;;;;14.23;7.90;;;4.80;99.90;;;;;;5072578;28;20052;-50
2023/03/12 10:07:34;;;;;;;15.73;8.60;;;5.00;99.90;;;;;;5071125;28;20052;-49
2023/03/12 10:10:01;;;;;;;16.02;8.77;;;5.20;99.90;;;;;;5086418;28;20044;-48
2023/03/12 10:13:12;;;;;;;13.90;7.25;;;5.40;99.90;;;;;;5093066;28;20109;-49
2023/03/12 10:16:06;;;;;;;20.30;7.72;;;5.50;99.90;;;;;;5090924;28;20098;-50
2023/03/12 10:19:09;;;;;;;12.15;7.65;;;5.60;99.90;;;;;;5090890;28;20040;-49
2023/03/12 10:22:00;;;;;;;16.40;7.45;;;5.80;99.90;;;;;;5085583;28;20040;-49
2023/03/12 10:24:44;;;;;;;15.20;8.57;;;5.90;99.90;;;;;;5091285;28;20109;-49
2023/03/12 10:27:14;;;;;;;13.05;8.02;;;5.70;99.90;;;;;;5104401;28;20078;-50
2023/03/12 10:29:45;;;;;;;13.07;8.35;;;5.50;99.90;;;;;;5105686;28;20404;-51
2023/03/12 10:32:33;;;;;;;15.75;9.05;;;5.40;99.90;;;;;;5111553;28;20047;-50
2023/03/12 10:35:11;;;;;;;13.52;7.53;;;5.50;99.90;;;;;;5101240;28;20055;-50
2023/03/12 10:37:43;;;;;;;15.88;9.30;;;5.50;99.90;;;;;;5096457;28;20052;-49
2023/03/12 10:40:16;;;;;;;15.30;8.38;;;5.40;99.90;;;;;;5090812;28;20082;-48
2023/03/12 10:42:43;;;;;;;11.38;7.00;;;5.40;99.90;;;;;;5098284;28;20453;-48
2023/03/12 10:45:09;;;;;;;13.90;8.35;;;5.30;99.90;;;;;;5099196;28;20044;-48
2023/03/12 10:47:39;;;;;;;14.40;8.02;;;5.20;99.90;;;;;;5092622;28;20074;-48
2023/03/12 10:50:13;;;;;;;13.23;7.15;;;5.10;99.90;;;;;;5098232;28;20043;-48
2023/03/12 10:52:41;;;;;;;13.27;6.88;;;5.00;99.90;;;;;;5103272;28;20492;-48
2023/03/12 10:55:13;;;;;;;12.18;8.02;;;4.90;99.90;;;;;;5094566;28;20094;-48
2023/03/12 10:57:41;;;;;;;17.85;9.40;;;4.70;99.90;;;;;;5094774;28;20032;-48
2023/03/12 11:00:11;;;;;;;19.55;10.32;;;4.50;99.90;;;;;;5101771;28;20106;-48
2023/03/12 11:02:44;;;;;;;20.60;12.90;;;4.50;99.90;;;;;;5100164;28;20059;-48
2023/03/12 11:05:47;;;;;;;23.70;14.10;;;4.60;99.90;;;;;;5094827;28;20048;-48
2023/03/12 11:08:26;;;;;;;15.23;8.93;;;4.70;99.90;;;;;;5097752;28;20522;-48
2023/03/12 11:10:55;;;;;;;13.13;8.25;;;4.70;99.90;;;;;;5099443;28;20044;-48
2023/03/12 11:13:23;;;;;;;13.23;7.28;;;4.80;99.90;;;;;;5102918;28;20048;-48
2023/03/12 11:15:51;;;;;;;13.60;8.50;;;4.90;99.90;;;;;;5106643;28;20032;-48
2023/03/12 11:18:26;;;;;;;13.48;8.25;;;5.00;99.90;;;;;;5102360;28;20142;-48
2023/03/12 11:20:55;;;;;;;13.35;8.20;;;5.20;99.90;;;;;;5102043;28;20089;-48
2023/03/12 11:23:29;;;;;;;12.43;7.38;;;5.10;99.90;;;;;;5101101;28;20457;-48
2023/03/12 11:26:04;;;;;;;11.30;6.68;;;5.20;99.90;;;;;;5098318;28;20036;-48
2023/03/12 11:28:40;;;;;;;14.82;8.10;;;5.00;99.90;;;;;;5093573;28;20044;-49
2023/03/12 11:31:18;;;;;;;12.95;7.22;;;5.00;99.90;;;;;;5094239;28;20454;-48
2023/03/12 11:33:45;;;;;;;13.25;7.35;;;5.00;99.90;;;;;;5097726;28;20048;-48
2023/03/12 11:36:33;;;;;;;15.80;8.35;;;5.00;99.90;;;;;;5110478;28;20098;-48
2023/03/12 11:39:27;;;;;;;13.63;8.70;;;5.10;99.90;;;;;;5102645;28;20106;-48
2023/03/12 11:42:21;;;;;;;14.38;9.00;;;5.20;99.90;;;;;;5109511;28;20293;-49
2023/03/12 11:45:04;;;;;;;13.88;8.35;;;5.30;99.90;;;;;;5110251;28;20051;-48
2023/03/12 11:47:57;;;;;;;17.40;9.32;;;5.40;99.90;;;;;;5114212;28;20035;-47
2023/03/12 11:50:41;;;;;;;15.00;8.23;;;5.40;99.90;;;;;;5077457;28;20032;-48
2023/03/12 11:53:35;;;;;;;14.90;7.65;;;5.50;99.90;;;;;;5113211;28;20074;-48
2023/03/12 11:56:13;;;;;;;11.50;7.05;;;5.50;99.90;;;;;;5114098;28;20541;-50
2023/03/12 11:59:01;;;;;;;9.35;5.65;;;5.80;99.90;;;;;;5101650;28;20043;-50
2023/03/12 12:01:38;;;;;;;10.40;5.57;;;6.10;99.90;;;;;;5103718;28;20047;-48
2023/03/12 12:04:24;;;;;;;15.93;8.88;;;6.30;99.90;;;;;;5095829;28;20118;-48
2023/03/12 12:06:56;;;;;;;13.70;8.63;;;6.50;99.90;;;;;;5098088;28;20035;-48
2023/03/12 12:09:47;;;;;;;14.35;8.75;;;6.60;99.90;;;;;;5072858;28;20067;-48
2023/03/12 12:12:38;;;;;;;13.45;8.73;;;6.70;99.90;;;;;;5082532;28;20032;-50
2023/03/12 12:15:17;;;;;;;13.05;7.05;;;6.70;99.90;;;;;;5096690;28;20450;-49
2023/03/12 12:17:58;;;;;;;25.33;11.27;;;6.80;99.90;;;;;;5094900;28;20036;-48
2023/03/12 12:20:36;;;;;;;14.05;7.75;;;6.40;99.90;;;;;;5097993;28;20057;-52
2023/03/12 12:23:06;;;;;;;;;;;6.60;99.90;;;;;;5073525;28;20048;-49
2023/03/12 12:25:58;;;;;;;14.50;8.23;;;6.80;99.90;;;;;;5100539;28;19928;-49
2023/03/12 12:28:40;;;;;;;16.67;8.45;;;6.90;99.90;;;;;;5072950;28;20451;-50
2023/03/12 12:31:27;;;;;;;12.05;7.50;;;6.80;99.90;;;;;;5072823;28;20080;-49
2023/03/12 12:34:06;;;;;;;11.50;6.72;;;6.50;99.90;;;;;;5095507;28;20043;-49
2023/03/12 12:36:34;;;;;;;15.18;7.93;;;6.40;99.90;;;;;;5107072;28;20114;-49
2023/03/12 12:39:14;;;;;;;12.48;6.47;;;6.40;99.90;;;;;;5112711;28;20400;-49
2023/03/12 12:41:47;;;;;;;13.15;8.27;;;6.50;99.90;;;;;;5104895;28;20040;-50
2023/03/12 12:44:18;;;;;;;14.18;8.43;;;6.60;99.90;;;;;;5100812;28;20102;-49
2023/03/12 12:46:54;;;;;;;13.05;8.07;;;6.40;99.90;;;;;;5092973;28;20055;-49
2023/03/12 12:49:24;;;;;;;17.35;7.85;;;6.50;99.90;;;;;;5093107;28;20060;-49
2023/03/12 12:51:56;;;;;;;11.88;7.78;;;6.50;99.90;;;;;;5091819;28;20047;-49
2023/03/12 12:54:26;;;;;;;12.50;7.72;;;6.40;99.90;;;;;;5092528;28;20048;-49
2023/03/12 12:56:59;;;;;;;11.20;7.05;;;6.40;99.90;;;;;;5090156;28;20036;-48
2023/03/12 12:59:38;;;;;;;11.45;6.55;;;6.40;99.90;;;;;;5093028;28;20032;-50
2023/03/12 13:02:17;;;;;;;9.80;6.80;;;6.40;99.90;;;;;;5097422;28;20387;-48
2023/03/12 13:04:45;;;;;;;9.93;5.93;;;6.50;99.90;;;;;;5101341;28;20055;-52
2023/03/12 13:07:11;;;;;;;11.13;6.20;;;6.70;99.90;;;;;;5102738;28;20089;-50
2023/03/12 13:09:49;;;;;;;13.63;6.00;;;6.70;99.90;;;;;;5096564;28;20524;-49
2023/03/12 13:12:31;;;;;;;9.40;6.28;;;6.60;99.90;;;;;;5102193;28;20075;-54